createdAt,value
2022-08-26T00:00:10.121Z,21.9
2022-08-26T00:05:10.084Z,21.9
2022-08-26T00:10:10.070Z,21.8
2022-08-26T00:15:10.051Z,21.8
2022-08-26T00:20:10.017Z,21.8
2022-08-26T00:25:10.004Z,21.7
2022-08-26T00:30:09.983Z,21.7
2022-08-26T00:35:09.965Z,21.6
2022-08-26T00:40:09.928Z,21.5
2022-08-26T00:45:09.916Z,21.4
2022-08-26T00:50:09.893Z,21.3
2022-08-26T00:55:09.901Z,21.2
2022-08-26T01:00:09.868Z,21.1
2022-08-26T01:05:09.836Z,21.1
2022-08-26T01:10:09.808Z,21
2022-08-26T01:15:09.783Z,21
2022-08-26T01:20:11.477Z,21
2022-08-26T01:25:09.744Z,21
2022-08-26T01:30:09.733Z,20.9
2022-08-26T01:35:09.709Z,20.8
2022-08-26T01:40:09.677Z,20.7
2022-08-26T01:45:09.657Z,20.6
2022-08-26T01:50:09.644Z,20.5
2022-08-26T01:55:09.610Z,20.5
2022-08-26T02:00:09.597Z,20.4
2022-08-26T02:05:09.566Z,20.4
2022-08-26T02:10:09.547Z,20.4
2022-08-26T02:15:09.531Z,20.4
2022-08-26T02:20:09.500Z,20.4
2022-08-26T02:25:09.496Z,20.4
2022-08-26T02:30:09.468Z,20.3
2022-08-26T02:35:09.446Z,20.3
2022-08-26T02:40:09.425Z,20.2
2022-08-26T02:45:09.401Z,20.1
2022-08-26T02:50:09.379Z,20.1
2022-08-26T02:55:09.355Z,20
2022-08-26T03:00:09.338Z,19.9
2022-08-26T03:05:09.313Z,19.8
2022-08-26T03:10:09.290Z,19.8
2022-08-26T03:15:09.295Z,19.8
2022-08-26T03:20:09.248Z,19.7
2022-08-26T03:25:09.221Z,19.7
2022-08-26T03:30:09.205Z,19.6
2022-08-26T03:35:09.221Z,19.6
2022-08-26T03:40:09.173Z,19.6
2022-08-26T03:45:09.137Z,19.6
2022-08-26T03:50:09.120Z,19.6
2022-08-26T03:55:09.098Z,19.6
2022-08-26T04:00:09.080Z,19.5
2022-08-26T04:05:09.056Z,19.5
2022-08-26T04:10:09.042Z,19.5
2022-08-26T04:15:09.011Z,19.4
2022-08-26T04:20:08.990Z,19.3
2022-08-26T04:25:08.970Z,19.3
2022-08-26T04:30:08.949Z,19.2
2022-08-26T04:35:08.922Z,19.1
2022-08-26T04:40:08.906Z,19.1
2022-08-26T04:45:08.888Z,19
2022-08-26T04:50:08.861Z,19
2022-08-26T04:55:08.836Z,19
2022-08-26T05:00:08.838Z,19
2022-08-26T05:05:08.801Z,19
2022-08-26T05:10:08.774Z,19.1
2022-08-26T05:15:08.759Z,19.2
2022-08-26T05:20:08.733Z,19.3
2022-08-26T05:25:08.719Z,19.3
2022-08-26T05:30:08.698Z,19.5
2022-08-26T05:35:08.668Z,19.5
2022-08-26T05:40:08.658Z,19.6
2022-08-26T05:45:08.627Z,19.8
2022-08-26T05:50:08.601Z,19.8
2022-08-26T05:55:08.588Z,20
2022-08-26T06:00:08.558Z,20.2
2022-08-26T06:05:08.538Z,20.4
2022-08-26T06:10:08.519Z,20.6
2022-08-26T06:15:08.502Z,20.7
2022-08-26T06:20:08.475Z,21
2022-08-26T06:25:08.460Z,21.3
2022-08-26T06:30:08.429Z,21.7
2022-08-26T06:35:11.723Z,21.9
2022-08-26T06:40:08.390Z,22.1
2022-08-26T06:45:08.373Z,21.8
2022-08-26T06:50:08.351Z,22.2
2022-08-26T06:55:08.321Z,22.7
2022-08-26T07:00:08.304Z,22.6
2022-08-26T07:05:08.298Z,22.9
2022-08-26T07:10:08.260Z,23
2022-08-26T07:15:08.235Z,23.4
2022-08-26T07:20:08.216Z,23.6
2022-08-26T07:25:08.202Z,23.1
2022-08-26T07:30:08.175Z,23
2022-08-26T07:35:08.153Z,23.8
2022-08-26T07:40:08.140Z,24.3
2022-08-26T07:45:08.136Z,24.6
2022-08-26T07:50:08.085Z,25
2022-08-26T07:55:08.070Z,25.4
2022-08-26T08:00:08.049Z,25.6
2022-08-26T08:05:08.022Z,25.8
2022-08-26T08:10:08.012Z,26.1
2022-08-26T08:15:07.990Z,26.5
2022-08-26T08:20:07.961Z,26.5
2022-08-26T08:25:07.941Z,26.6
2022-08-26T08:30:07.925Z,26.7
2022-08-26T08:35:07.906Z,26.5
2022-08-26T08:40:07.866Z,27.4
2022-08-26T08:45:07.855Z,27.8
2022-08-26T08:50:07.828Z,28.2
2022-08-26T08:55:07.805Z,28.3
2022-08-26T09:00:07.792Z,28.5
2022-08-26T09:05:07.773Z,28.9
2022-08-26T09:10:07.750Z,29.1
2022-08-26T09:15:07.722Z,29.3
2022-08-26T09:20:07.710Z,29.5
2022-08-26T09:25:07.696Z,29.7
2022-08-26T09:30:07.663Z,30
2022-08-26T09:35:07.642Z,30.3
2022-08-26T09:40:07.620Z,30.4
2022-08-26T09:45:07.607Z,30.5
2022-08-26T09:50:07.590Z,30.1
2022-08-26T10:00:07.541Z,30.4
2022-08-26T10:05:07.521Z,30.4
2022-08-26T10:15:07.475Z,30.7
2022-08-26T10:20:07.458Z,31
2022-08-26T10:25:07.440Z,31.3
2022-08-26T10:30:07.416Z,31.3
2022-08-26T10:35:07.388Z,31.5
2022-08-26T10:40:07.368Z,31.6
2022-08-26T10:45:07.352Z,31.6
2022-08-26T10:50:07.332Z,31.9
2022-08-26T10:55:07.308Z,32.1
2022-08-26T11:00:07.283Z,31.8
2022-08-26T11:05:07.271Z,31.6
2022-08-26T11:10:07.240Z,31.9
2022-08-26T11:15:07.229Z,31.8
2022-08-26T11:20:07.199Z,31.8
2022-08-26T11:25:07.196Z,31.9
2022-08-26T11:30:07.156Z,31.9
2022-08-26T11:35:07.147Z,32.2
2022-08-26T11:40:07.120Z,32
2022-08-26T11:45:07.095Z,32.3
2022-08-26T11:50:07.089Z,32.4
2022-08-26T11:55:07.067Z,32.4
2022-08-26T12:00:07.046Z,32.6
2022-08-26T12:05:07.023Z,32.9
2022-08-26T12:10:06.999Z,33
2022-08-26T12:15:06.989Z,32.9
2022-08-26T12:20:06.963Z,33.1
2022-08-26T12:25:06.941Z,33.2
2022-08-26T12:30:06.921Z,33.4
2022-08-26T12:35:06.894Z,33.6
2022-08-26T12:40:06.877Z,33.7
2022-08-26T12:45:06.860Z,33.4
2022-08-26T12:50:06.848Z,33.6
2022-08-26T12:55:06.812Z,33.4
2022-08-26T13:00:06.795Z,33.3
2022-08-26T13:05:06.774Z,32.6
2022-08-26T13:10:06.762Z,32.3
2022-08-26T13:15:06.738Z,32
2022-08-26T13:20:06.734Z,31.8
2022-08-26T13:25:06.704Z,31.8
2022-08-26T13:30:06.667Z,31.7
2022-08-26T13:35:06.654Z,31.4
2022-08-26T13:40:06.636Z,31.2
2022-08-26T13:45:06.609Z,30.7
2022-08-26T13:50:06.591Z,30.4
2022-08-26T13:55:06.562Z,30.1
2022-08-26T14:00:06.543Z,30.1
2022-08-26T14:05:06.540Z,29.9
2022-08-26T14:10:06.505Z,29.7
2022-08-26T14:15:06.478Z,29.4
2022-08-26T14:20:06.486Z,29.3
2022-08-26T14:25:06.438Z,29.1
2022-08-26T14:30:06.427Z,29
2022-08-26T14:35:06.395Z,28.8
2022-08-26T14:40:06.383Z,28.6
2022-08-26T14:45:06.352Z,28.5
2022-08-26T14:50:06.338Z,28.3
2022-08-26T14:55:06.316Z,27.1
2022-08-26T15:00:06.293Z,26.6
2022-08-26T15:05:06.270Z,26.4
2022-08-26T15:10:06.252Z,26.2
2022-08-26T15:15:06.248Z,25.9
2022-08-26T15:20:06.205Z,25.9
2022-08-26T15:25:06.203Z,25.8
2022-08-26T15:30:06.168Z,25.4
2022-08-26T15:35:06.144Z,25.2
2022-08-26T15:40:06.123Z,24.9
2022-08-26T15:45:06.101Z,24.8
2022-08-26T15:50:06.078Z,24.7
2022-08-26T15:55:06.070Z,24.7
2022-08-26T16:00:06.035Z,24.6
2022-08-26T16:05:06.014Z,24.5
2022-08-26T16:10:05.989Z,24.4
2022-08-26T16:15:05.975Z,24.4
2022-08-26T16:20:05.958Z,24.3
2022-08-26T16:25:05.928Z,24.3
2022-08-26T16:30:05.901Z,24.5
2022-08-26T16:35:05.884Z,24.4
2022-08-26T16:40:05.863Z,24.3
2022-08-26T16:45:05.846Z,24.3
2022-08-26T16:50:05.826Z,24.2
2022-08-26T16:55:05.804Z,24.2
2022-08-26T17:00:05.777Z,24
2022-08-26T17:05:05.759Z,23.9
2022-08-26T17:10:05.729Z,23.7
2022-08-26T17:15:05.714Z,23.6
2022-08-26T17:20:05.693Z,23.4
2022-08-26T17:25:05.673Z,22.2
2022-08-26T17:30:05.644Z,21.6
2022-08-26T17:35:05.624Z,21.6
2022-08-26T17:40:05.607Z,21.5
2022-08-26T17:45:05.584Z,21.7
2022-08-26T17:50:05.565Z,21.4
2022-08-26T17:55:05.543Z,21.2
2022-08-26T18:00:05.517Z,21.1
2022-08-26T18:05:05.496Z,21.1
2022-08-26T18:10:05.479Z,21.1
2022-08-26T18:15:05.450Z,21.1
2022-08-26T18:20:05.433Z,21.1
2022-08-26T18:25:05.458Z,21
2022-08-26T18:30:05.390Z,20.8
2022-08-26T18:35:05.366Z,20.8
2022-08-26T18:40:05.350Z,20.7
2022-08-26T18:45:05.321Z,20.6
2022-08-26T18:50:05.300Z,20.5
2022-08-26T18:55:05.277Z,20.4
2022-08-26T19:00:05.263Z,20.3
2022-08-26T19:05:05.234Z,20.1
2022-08-26T19:10:05.219Z,20
2022-08-26T19:15:05.202Z,19.9
2022-08-26T19:20:05.168Z,19.7
2022-08-26T19:25:05.157Z,19.7
2022-08-26T19:30:05.132Z,19.6
2022-08-26T19:35:05.114Z,19.6
2022-08-26T19:40:05.089Z,19.7
2022-08-26T19:45:05.081Z,19.7
2022-08-26T19:50:05.124Z,19.6
2022-08-26T19:55:05.027Z,19.7
2022-08-26T20:00:05.000Z,19.6
2022-08-26T20:05:04.985Z,19.6
2022-08-26T20:10:04.983Z,19.5
2022-08-26T20:15:04.936Z,19.4
2022-08-26T20:20:04.919Z,19.3
2022-08-26T20:25:04.894Z,19.2
2022-08-26T20:30:04.873Z,19
2022-08-26T20:35:04.853Z,18.9
2022-08-26T20:40:04.835Z,18.9
2022-08-26T20:45:04.812Z,18.9
2022-08-26T20:50:04.792Z,18.9
2022-08-26T20:55:04.768Z,18.7
2022-08-26T21:00:04.747Z,18.7
2022-08-26T21:05:04.729Z,18.6
2022-08-26T21:10:04.705Z,18.6
2022-08-26T21:15:04.682Z,18.6
2022-08-26T21:20:04.657Z,18.6
2022-08-26T21:25:04.636Z,18.6
2022-08-26T21:30:04.625Z,18.6
2022-08-26T21:35:04.601Z,18.5
2022-08-26T21:40:04.575Z,18.5
2022-08-26T21:45:04.556Z,18.5
2022-08-26T21:50:04.541Z,18.4
2022-08-26T21:55:04.508Z,18.5
2022-08-26T22:00:04.495Z,18.4
2022-08-26T22:05:04.473Z,18.4
2022-08-26T22:10:04.451Z,18.4
2022-08-26T22:15:04.429Z,18.4
2022-08-26T22:20:04.407Z,18.4
2022-08-26T22:25:04.389Z,18.4
2022-08-26T22:30:04.368Z,18.4
2022-08-26T22:35:04.349Z,18.3
2022-08-26T22:40:04.316Z,18.3
2022-08-26T22:45:04.311Z,18.3
2022-08-26T22:50:04.273Z,18.3
2022-08-26T22:55:04.252Z,18.3
2022-08-26T23:00:04.228Z,18.3
2022-08-26T23:05:04.210Z,18.3
2022-08-26T23:10:04.185Z,18.3
2022-08-26T23:15:04.163Z,18.3
2022-08-26T23:20:04.153Z,18.3
2022-08-26T23:25:04.128Z,18.2
2022-08-26T23:30:04.099Z,18.2
2022-08-26T23:35:04.096Z,18.2
2022-08-26T23:40:04.060Z,18.2
2022-08-26T23:45:04.042Z,18.1
2022-08-26T23:50:04.018Z,18.1
2022-08-26T23:55:04.000Z,18.1
